Perseverance — V7BS7 — position and weather

sailwx.info

Track history (hours):
 
Tides and Currents Weather Stations Pressure Air Temp Water Temp Dewpoint Dewpoint Depression Visibility Wind Speed Wind Dir Waves Ship Positions

Perseverance

Last reported at 2018-May-30 02:25 UTC. Time now 2018-Jun-22 07:45 UTC.
Position N 01°24' E 103°15'.
Warning: this ship's position is 23 days out of date.

Length 179 m; draft 9.7 m.

Type: Cargo ship. MMSI: 538005192.

Date/timePositionNaut miles runAvg speedWind from/ knotsBaromVisibWave heightAir tempDewpointWater temp
2018-May-30 02:25N 01°24' E 103°15'710.7
2018-May-30 01:46N 01°19' E 103°20'311.1
2018-May-30 01:27N 01°17' E 103°22'511.4
2018-May-30 01:00N 01°14' E 103°26'611.7
2018-May-30 00:30N 01°13' E 103°32'612.0
2018-May-29 23:59N 01°11' E 103°38'511.3
2018-May-29 23:30N 01°09' E 103°43'4 8.4
2018-May-29 23:00N 01°10' E 103°47'5 9.6
2018-May-29 22:30N 01°12' E 103°52'5 9.5
2018-May-29 22:00N 01°14' E 103°56'510.2
2018-May-29 21:30N 01°16' E 104°01'5 9.6
2018-May-29 21:00N 01°16' E 104°05'5 9.6
2018-May-29 20:29N 01°17' E 104°10'4 8.8
2018-May-29 19:59N 01°18' E 104°15'4 8.8
2018-May-29 19:30N 01°19' E 104°19'5 8.5
2018-May-29 18:57N 01°21' E 104°23'4 9.3
2018-May-29 18:30N 01°24' E 104°26'5 9.9
2018-May-29 17:58N 01°27' E 104°30'510.5
2018-May-29 17:29N 01°26' E 104°35'911.3
2018-May-29 16:41N 01°22' E 104°43'411.4
2018-May-29 16:20N 01°21' E 104°47'  
Track history (hours):
 
Tides and Currents Weather Stations Pressure Air Temp Water Temp Dewpoint Dewpoint Depression Visibility Wind Speed Wind Dir Waves Ship Positions

Perseverance

Last reported at 2018-May-30 02:25 UTC. Time now 2018-Jun-22 07:45 UTC.
Position N 01°24' E 103°15'.
Warning: this ship's position is 23 days out of date.

Length 179 m; draft 9.7 m.

Type: Cargo ship. MMSI: 538005192.

Date/timePositionNaut miles runAvg speedWind from/ knotsBaromVisibWave heightAir tempDewpointWater temp
2018-May-30 02:25N 01°24' E 103°15'710.7
2018-May-30 01:46N 01°19' E 103°20'311.1
2018-May-30 01:27N 01°17' E 103°22'511.4
2018-May-30 01:00N 01°14' E 103°26'611.7
2018-May-30 00:30N 01°13' E 103°32'612.0
2018-May-29 23:59N 01°11' E 103°38'511.3
2018-May-29 23:30N 01°09' E 103°43'4 8.4
2018-May-29 23:00N 01°10' E 103°47'5 9.6
2018-May-29 22:30N 01°12' E 103°52'5 9.5
2018-May-29 22:00N 01°14' E 103°56'510.2
2018-May-29 21:30N 01°16' E 104°01'5 9.6
2018-May-29 21:00N 01°16' E 104°05'5 9.6
2018-May-29 20:29N 01°17' E 104°10'4 8.8
2018-May-29 19:59N 01°18' E 104°15'4 8.8
2018-May-29 19:30N 01°19' E 104°19'5 8.5
2018-May-29 18:57N 01°21' E 104°23'4 9.3
2018-May-29 18:30N 01°24' E 104°26'5 9.9
2018-May-29 17:58N 01°27' E 104°30'510.5
2018-May-29 17:29N 01°26' E 104°35'911.3
2018-May-29 16:41N 01°22' E 104°43'411.4
2018-May-29 16:20N 01°21' E 104°47'  

Dump ship's entire track history